createdAt,value
2017-11-22T00:00:31.723Z,10.46
2017-11-22T00:03:06.152Z,10.43
2017-11-22T00:05:41.392Z,10.42
2017-11-22T00:08:25.210Z,10.37
2017-11-22T00:10:59.772Z,10.28
2017-11-22T00:13:31.213Z,10.27
2017-11-22T00:16:09.028Z,10.26
2017-11-22T00:18:43.365Z,10.30
2017-11-22T00:21:14.700Z,10.32
2017-11-22T00:23:50.952Z,10.34
2017-11-22T00:26:29.013Z,10.33
2017-11-22T00:29:07.678Z,10.24
2017-11-22T00:31:42.037Z,10.27
2017-11-22T00:34:20.063Z,10.27
2017-11-22T00:36:52.197Z,10.21
2017-11-22T00:39:29.003Z,10.24
2017-11-22T00:42:06.111Z,10.24
2017-11-22T00:44:39.020Z,10.27
2017-11-22T00:53:02.792Z,10.21
2017-11-22T00:55:34.359Z,10.23
2017-11-22T00:58:12.868Z,10.25
2017-11-22T01:00:48.763Z,10.27
2017-11-22T01:03:20.396Z,10.24
2017-11-22T01:05:52.316Z,10.18
2017-11-22T01:08:24.788Z,10.17
2017-11-22T01:10:58.898Z,10.18
2017-11-22T01:13:31.522Z,10.16
2017-11-22T01:16:07.302Z,10.16
2017-11-22T01:18:39.010Z,10.16
2017-11-22T01:21:21.933Z,10.19
2017-11-22T01:23:53.885Z,10.22
2017-11-22T01:26:26.380Z,10.23
2017-11-22T01:29:11.953Z,10.22
2017-11-22T01:31:50.521Z,10.26
2017-11-22T01:34:22.126Z,10.28
2017-11-22T01:36:58.107Z,10.24
2017-11-22T01:45:21.567Z,10.25
2017-11-22T01:47:54.986Z,10.25
2017-11-22T01:50:29.238Z,10.25
2017-11-22T01:53:01.767Z,10.21
2017-11-22T01:55:34.085Z,10.18
2017-11-22T02:03:01.732Z,10.02
2017-11-22T02:05:37.724Z,9.75
2017-11-22T02:11:44.581Z,9.51
2017-11-22T02:14:19.390Z,9.38
2017-11-22T02:16:53.076Z,9.28
2017-11-22T02:19:28.243Z,9.17
2017-11-22T02:22:05.008Z,9.07
2017-11-22T02:24:38.097Z,9.00
2017-11-22T02:27:20.791Z,8.91
2017-11-22T02:29:53.193Z,8.83
2017-11-22T02:32:24.838Z,8.83
2017-11-22T02:35:01.887Z,8.74
2017-11-22T02:37:33.441Z,8.74
2017-11-22T02:40:07.332Z,8.69
2017-11-22T02:45:52.084Z,8.62
2017-11-22T02:48:29.277Z,8.58
2017-11-22T02:51:07.320Z,8.50
2017-11-22T02:53:38.960Z,8.47
2017-11-22T02:56:15.207Z,8.38
2017-11-22T02:58:46.885Z,8.36
2017-11-22T03:01:21.380Z,8.33
2017-11-22T03:03:58.223Z,8.30
2017-11-22T03:06:35.150Z,8.27
2017-11-22T03:09:12.885Z,8.28
2017-11-22T03:11:49.614Z,8.29
2017-11-22T03:14:22.721Z,8.29
2017-11-22T03:17:04.729Z,8.32
2017-11-22T03:19:37.278Z,8.34
2017-11-22T03:22:09.881Z,8.35
2017-11-22T03:32:33.141Z,8.45
2017-11-22T03:35:30.312Z,8.53
2017-11-22T04:04:35.577Z,8.85
2017-11-22T04:07:07.045Z,8.88
2017-11-22T04:09:38.632Z,8.88
2017-11-22T04:12:10.018Z,8.93
2017-11-22T04:14:41.325Z,8.98
2017-11-22T04:17:12.647Z,9.02
2017-11-22T04:19:49.545Z,9.05
2017-11-22T04:22:20.848Z,9.05
2017-11-22T04:24:52.490Z,9.02
2017-11-22T04:27:24.089Z,8.99
2017-11-22T04:29:55.964Z,8.98
2017-11-22T04:32:49.956Z,9.01
2017-11-22T04:44:52.817Z,9.23
2017-11-22T04:47:24.532Z,9.28
2017-11-22T04:49:58.073Z,9.32
2017-11-22T04:52:29.842Z,9.30
2017-11-22T04:55:06.673Z,9.25
2017-11-22T04:57:38.030Z,9.18
2017-11-22T05:00:09.680Z,9.08
2017-11-22T05:02:41.041Z,9.01
2017-11-22T05:05:12.453Z,8.96
2017-11-22T05:07:43.793Z,8.89
2017-11-22T05:10:15.568Z,8.88
2017-11-22T05:12:46.894Z,8.89
2017-11-22T05:15:18.228Z,8.86
2017-11-22T05:17:49.758Z,8.85
2017-11-22T05:20:21.127Z,8.84
2017-11-22T05:22:52.483Z,8.79
2017-11-22T05:25:24.143Z,8.71
2017-11-22T05:27:55.437Z,8.63
2017-11-22T05:30:32.212Z,8.62
2017-11-22T05:48:24.326Z,8.20
2017-11-22T05:50:56.023Z,8.11
2017-11-22T05:53:27.379Z,8.02
2017-11-22T05:55:59.025Z,7.95
2017-11-22T05:58:30.405Z,7.89
2017-11-22T06:01:07.672Z,7.84
2017-11-22T06:03:39.326Z,7.79
2017-11-22T06:06:11.981Z,7.75
2017-11-22T06:08:44.268Z,7.72
2017-11-22T06:11:15.996Z,7.71
2017-11-22T06:13:47.320Z,7.72
2017-11-22T06:16:26.796Z,7.74
2017-11-22T06:18:58.421Z,7.75
2017-11-22T06:21:30.490Z,7.73
2017-11-22T06:24:04.248Z,7.87
2017-11-22T06:26:35.566Z,7.87
2017-11-22T06:29:06.899Z,7.86
2017-11-22T06:31:38.244Z,7.92
2017-11-22T06:36:47.636Z,7.96
2017-11-22T06:39:24.734Z,7.96
2017-11-22T06:41:56.048Z,7.96
2017-11-22T06:44:27.383Z,7.93
2017-11-22T06:46:58.672Z,7.90
2017-11-22T06:49:30.352Z,7.87
2017-11-22T06:52:03.710Z,7.81
2017-11-22T06:54:35.450Z,7.81
2017-11-22T06:57:06.765Z,7.83
2017-11-22T06:59:38.085Z,7.86
2017-11-22T07:02:17.475Z,7.89
2017-11-22T07:04:48.868Z,7.93
2017-11-22T07:07:21.248Z,7.97
2017-11-22T07:09:53.177Z,8.01
2017-11-22T07:12:25.034Z,8.08
2017-11-22T07:14:56.359Z,8.21
2017-11-22T07:17:31.708Z,8.32
2017-11-22T07:20:04.638Z,8.52
2017-11-22T07:22:38.008Z,8.65
2017-11-22T07:25:09.601Z,8.81
2017-11-22T07:27:41.046Z,9.18
2017-11-22T07:30:15.369Z,9.71
2017-11-22T07:36:04.161Z,11.36
2017-11-22T07:38:36.649Z,12.07
2017-11-22T07:41:09.705Z,12.78
2017-11-22T07:43:42.212Z,13.21
2017-11-22T07:46:15.478Z,13.70
2017-11-22T07:48:46.813Z,14.26
2017-11-22T07:51:23.713Z,14.02
2017-11-22T07:53:55.217Z,13.89
2017-11-22T07:56:27.663Z,14.33
2017-11-22T07:59:04.187Z,14.34
2017-11-22T08:01:35.592Z,13.66
2017-11-22T08:04:13.778Z,12.70
2017-11-22T08:06:45.244Z,12.51
2017-11-22T08:09:34.830Z,12.15
2017-11-22T08:12:12.111Z,11.84
2017-11-22T08:14:52.656Z,11.41
2017-11-22T08:17:25.164Z,11.01
2017-11-22T08:19:56.575Z,10.81
2017-11-22T08:22:29.418Z,10.49
2017-11-22T08:25:08.598Z,10.45
2017-11-22T08:27:40.015Z,10.24
2017-11-22T08:30:13.233Z,10.39
2017-11-22T08:33:03.806Z,10.46
2017-11-22T08:35:35.123Z,10.68
2017-11-22T08:38:15.477Z,10.53
2017-11-22T08:40:46.863Z,10.37
2017-11-22T08:43:23.398Z,10.62
2017-11-22T08:45:57.694Z,10.79
2017-11-22T08:48:29.061Z,10.76
2017-11-22T08:51:02.040Z,11.02
2017-11-22T08:53:34.584Z,11.25
2017-11-22T08:56:21.415Z,11.55
2017-11-22T08:58:52.764Z,10.95
2017-11-22T09:01:25.933Z,11.14
2017-11-22T09:03:57.262Z,11.34
2017-11-22T09:06:31.256Z,11.62
2017-11-22T09:09:03.327Z,11.82
2017-11-22T09:11:34.991Z,12.22
2017-11-22T09:14:07.392Z,12.52
2017-11-22T09:16:39.070Z,13.00
2017-11-22T09:19:12.209Z,15.29
2017-11-22T09:21:43.591Z,17.61
2017-11-22T09:25:06.609Z,20.24
2017-11-22T09:27:44.114Z,23.09
2017-11-22T09:30:18.780Z,24.66
2017-11-22T09:32:52.871Z,26.37
2017-11-22T09:35:24.171Z,26.21
2017-11-22T09:37:55.513Z,27.92
2017-11-22T09:40:27.123Z,29.34
2017-11-22T09:42:58.439Z,28.20
2017-11-22T09:45:30.077Z,29.88
2017-11-22T09:48:16.939Z,29.08
2017-11-22T09:50:48.352Z,30.61
2017-11-22T09:53:26.180Z,30.46
2017-11-22T09:55:57.504Z,28.78
2017-11-22T09:58:30.160Z,29.29
2017-11-22T10:01:01.882Z,30.11
2017-11-22T10:03:33.250Z,29.25
2017-11-22T10:06:08.142Z,29.72
2017-11-22T10:08:39.501Z,27.11
2017-11-22T10:11:11.464Z,28.23
2017-11-22T10:13:45.514Z,27.98
2017-11-22T10:16:25.957Z,28.76
2017-11-22T10:19:02.198Z,28.51
2017-11-22T10:21:37.879Z,29.86
2017-11-22T10:24:14.560Z,31.27
2017-11-22T10:26:50.873Z,30.14
2017-11-22T10:29:24.323Z,29.48
2017-11-22T10:32:00.046Z,28.69
2017-11-22T10:34:31.576Z,31.70
2017-11-22T10:37:03.258Z,32.89
2017-11-22T10:39:36.430Z,31.62
2017-11-22T10:42:12.230Z,31.44
2017-11-22T10:44:43.652Z,32.02
2017-11-22T10:47:15.802Z,31.70
2017-11-22T10:49:47.137Z,29.69
2017-11-22T10:52:23.206Z,29.34
2017-11-22T10:54:54.518Z,25.31
2017-11-22T10:57:26.956Z,26.77
2017-11-22T10:59:59.155Z,26.37
2017-11-22T11:02:33.403Z,23.21
2017-11-22T11:05:05.585Z,24.15
2017-11-22T11:07:36.925Z,24.82
2017-11-22T11:10:12.483Z,24.84
2017-11-22T11:12:43.860Z,28.52
2017-11-22T11:15:17.767Z,28.98
2017-11-22T11:17:50.502Z,26.94
2017-11-22T11:20:23.085Z,27.86
2017-11-22T11:22:54.410Z,27.36
2017-11-22T11:25:27.868Z,26.85
2017-11-22T11:27:59.219Z,29.23
2017-11-22T11:30:31.319Z,30.60
2017-11-22T11:33:05.352Z,31.09
2017-11-22T11:35:45.840Z,31.52
2017-11-22T11:38:18.275Z,30.47
2017-11-22T11:40:50.949Z,28.66
2017-11-22T11:43:22.318Z,25.08
2017-11-22T11:45:53.736Z,26.48
2017-11-22T11:48:25.316Z,25.73
2017-11-22T11:53:39.780Z,28.08
2017-11-22T11:56:17.407Z,29.30
2017-11-22T11:58:49.333Z,29.97
2017-11-22T12:01:21.719Z,29.53
2017-11-22T12:03:54.087Z,32.55
2017-11-22T12:06:26.719Z,32.35
2017-11-22T12:08:58.404Z,34.37
2017-11-22T12:11:29.774Z,33.32
2017-11-22T12:14:26.829Z,34.28
2017-11-22T12:16:58.172Z,31.83
2017-11-22T12:19:29.548Z,30.85
2017-11-22T12:25:16.811Z,34.49
2017-11-22T12:27:48.424Z,35.34
2017-11-22T12:30:21.312Z,32.81
2017-11-22T12:32:53.708Z,34.39
2017-11-22T12:35:26.655Z,32.48
2017-11-22T12:37:58.911Z,30.84
2017-11-22T12:40:30.313Z,27.48
2017-11-22T12:43:02.247Z,25.12
2017-11-22T12:45:35.744Z,23.08
2017-11-22T12:48:09.784Z,22.28
2017-11-22T12:50:43.574Z,22.04
2017-11-22T12:53:16.383Z,21.08
2017-11-22T12:55:48.167Z,20.76
2017-11-22T12:58:21.750Z,20.46
2017-11-22T13:00:53.855Z,20.22
2017-11-22T13:03:27.857Z,20.12
2017-11-22T13:06:00.293Z,19.53
2017-11-22T13:08:31.683Z,18.66
2017-11-22T13:12:14.207Z,18.74
2017-11-22T13:14:45.577Z,18.37
2017-11-22T13:21:09.009Z,18.23
2017-11-22T13:23:42.730Z,17.97
2017-11-22T13:26:21.260Z,17.92
2017-11-22T13:28:52.638Z,17.49
2017-11-22T13:31:24.009Z,17.21
2017-11-22T13:34:16.518Z,17.17
2017-11-22T13:39:44.847Z,17.32
2017-11-22T13:42:18.280Z,17.24
2017-11-22T13:44:50.177Z,17.22
2017-11-22T13:47:21.944Z,17.27
2017-11-22T13:49:53.390Z,17.07
2017-11-22T13:52:25.684Z,17.12
2017-11-22T13:54:57.714Z,17.17
2017-11-22T13:57:29.069Z,17.27
2017-11-22T14:00:00.728Z,17.26
2017-11-22T14:02:32.931Z,17.02
2017-11-22T14:05:04.904Z,16.91
2017-11-22T14:07:37.433Z,16.99
2017-11-22T14:10:14.409Z,16.84
2017-11-22T14:12:46.786Z,16.78
2017-11-22T14:15:20.074Z,16.78
2017-11-22T14:17:51.531Z,16.76
2017-11-22T14:20:23.138Z,16.75
2017-11-22T14:22:54.569Z,16.72
2017-11-22T14:25:29.176Z,16.43
2017-11-22T14:28:05.870Z,16.47
2017-11-22T14:30:39.568Z,16.47
2017-11-22T14:33:11.287Z,16.24
2017-11-22T14:35:42.702Z,16.18
2017-11-22T14:38:15.566Z,16.17
2017-11-22T14:40:48.615Z,16.14
2017-11-22T14:43:21.344Z,16.11
2017-11-22T14:45:52.844Z,16.07
2017-11-22T14:48:24.189Z,15.97
2017-11-22T14:50:56.437Z,15.92
2017-11-22T14:53:28.558Z,15.87
2017-11-22T14:55:59.992Z,15.83
2017-11-22T14:58:32.324Z,15.69
2017-11-22T15:01:04.149Z,15.57
2017-11-22T15:03:35.642Z,15.46
2017-11-22T15:06:10.041Z,15.38
2017-11-22T15:13:46.597Z,15.31
2017-11-22T15:16:22.053Z,15.05
2017-11-22T15:24:42.387Z,14.74
2017-11-22T15:27:14.736Z,14.69
2017-11-22T15:29:46.730Z,14.65
2017-11-22T15:32:22.491Z,14.53
2017-11-22T15:34:53.923Z,14.40
2017-11-22T15:40:24.805Z,14.19
2017-11-22T15:42:56.997Z,14.10
2017-11-22T15:45:28.415Z,13.93
2017-11-22T15:48:01.166Z,13.85
2017-11-22T15:50:37.195Z,13.80
2017-11-22T15:53:08.551Z,13.66
2017-11-22T15:55:40.813Z,13.53
2017-11-22T15:58:22.231Z,13.56
2017-11-22T16:00:53.692Z,13.43
2017-11-22T16:03:25.052Z,13.34
2017-11-22T16:05:56.747Z,13.27
2017-11-22T16:08:28.133Z,13.16
2017-11-22T16:11:00.828Z,13.19
2017-11-22T16:13:32.503Z,13.11
2017-11-22T16:16:04.965Z,13.02
2017-11-22T16:18:37.326Z,12.96
2017-11-22T16:21:37.490Z,12.87
2017-11-22T16:24:12.015Z,12.78
2017-11-22T16:26:43.349Z,12.73
2017-11-22T16:35:15.078Z,12.59
2017-11-22T16:37:47.239Z,12.58
2017-11-22T16:43:22.575Z,12.51
2017-11-22T16:45:53.951Z,12.43
2017-11-22T16:48:26.815Z,12.34
2017-11-22T16:51:00.505Z,12.33
2017-11-22T16:53:34.585Z,12.26
2017-11-22T16:56:16.373Z,12.25
2017-11-22T16:58:48.767Z,12.21
2017-11-22T17:01:20.109Z,12.14
2017-11-22T17:03:52.049Z,12.13
2017-11-22T17:06:24.358Z,12.18
2017-11-22T17:14:46.707Z,12.12
2017-11-22T17:17:20.828Z,12.14
2017-11-22T17:19:53.231Z,12.22
2017-11-22T17:22:26.596Z,12.21
2017-11-22T17:24:58.286Z,12.15
2017-11-22T17:27:32.727Z,12.12
2017-11-22T17:30:15.331Z,12.15
2017-11-22T17:32:46.775Z,12.19
2017-11-22T17:35:19.495Z,12.18
2017-11-22T17:37:51.703Z,12.20
2017-11-22T17:40:26.060Z,12.19
2017-11-22T17:42:57.458Z,12.18
2017-11-22T17:45:30.057Z,12.13
2017-11-22T17:48:04.542Z,12.09
2017-11-22T17:50:37.848Z,12.07
2017-11-22T17:53:11.113Z,12.09
2017-11-22T17:55:42.582Z,12.05
2017-11-22T18:00:53.877Z,11.93
2017-11-22T18:03:29.553Z,11.91
2017-11-22T18:06:01.098Z,11.86
2017-11-22T18:08:33.600Z,11.82
2017-11-22T18:11:06.996Z,11.78
2017-11-22T18:13:41.274Z,11.74
2017-11-22T18:16:22.709Z,11.73
2017-11-22T18:18:54.600Z,11.68
2017-11-22T18:21:27.709Z,11.65
2017-11-22T18:23:59.174Z,11.65
2017-11-22T18:26:30.830Z,11.71
2017-11-22T18:29:03.057Z,11.65
2017-11-22T18:31:36.884Z,11.63
2017-11-22T18:34:18.719Z,11.60
2017-11-22T18:36:50.092Z,11.55
2017-11-22T18:39:21.907Z,11.54
2017-11-22T18:41:53.543Z,11.53
2017-11-22T18:44:26.527Z,11.51
2017-11-22T18:46:57.929Z,11.53
2017-11-22T18:49:30.296Z,11.46
2017-11-22T18:52:05.345Z,11.43
2017-11-22T18:54:38.181Z,11.40
2017-11-22T18:57:11.132Z,11.46
2017-11-22T18:59:46.057Z,11.41
2017-11-22T19:02:20.799Z,11.36
2017-11-22T19:04:52.131Z,11.28
2017-11-22T19:10:04.024Z,11.14
2017-11-22T19:12:35.421Z,11.09
2017-11-22T19:15:09.097Z,11.14
2017-11-22T19:17:40.432Z,11.18
2017-11-22T19:22:55.669Z,11.10
2017-11-22T19:25:27.390Z,11.14
2017-11-22T19:28:00.660Z,11.10
2017-11-22T19:30:33.753Z,11.03
2017-11-22T19:33:05.451Z,11.03
2017-11-22T19:35:37.563Z,10.98
2017-11-22T19:38:20.990Z,10.92
2017-11-22T19:40:52.379Z,10.91
2017-11-22T19:43:24.296Z,10.84
2017-11-22T19:45:56.608Z,10.79
2017-11-22T19:48:30.186Z,10.75
2017-11-22T19:51:01.920Z,10.75
2017-11-22T19:53:34.456Z,10.66
2017-11-22T19:56:10.858Z,10.64
2017-11-22T19:58:43.632Z,10.60
2017-11-22T20:01:17.830Z,10.59
2017-11-22T20:03:50.033Z,10.53
2017-11-22T20:06:23.196Z,10.54
2017-11-22T20:08:59.262Z,10.54
2017-11-22T20:11:31.233Z,10.52
2017-11-22T20:14:04.487Z,10.52
2017-11-22T20:16:36.778Z,10.56
2017-11-22T20:19:09.073Z,10.45
2017-11-22T20:21:41.298Z,10.43
2017-11-22T20:24:26.461Z,10.38
2017-11-22T20:27:01.650Z,10.39
2017-11-22T20:29:33.000Z,10.44
2017-11-22T20:32:11.774Z,10.42
2017-11-22T20:34:44.595Z,10.47
2017-11-22T20:37:18.520Z,10.45
2017-11-22T20:39:50.738Z,10.43
2017-11-22T20:42:24.380Z,10.43
2017-11-22T20:44:56.609Z,10.45
2017-11-22T20:47:28.049Z,10.50
2017-11-22T20:49:59.534Z,10.58
2017-11-22T20:52:31.528Z,10.62
2017-11-22T20:55:03.543Z,10.62
2017-11-22T20:57:36.007Z,10.64
2017-11-22T21:00:10.080Z,10.62
2017-11-22T21:02:43.865Z,10.65
2017-11-22T21:05:16.842Z,10.61
2017-11-22T21:07:49.069Z,10.62
2017-11-22T21:10:24.364Z,10.57
2017-11-22T21:12:55.719Z,10.58
2017-11-22T21:15:27.108Z,10.71
2017-11-22T21:17:59.107Z,10.76
2017-11-22T21:20:30.630Z,10.72
2017-11-22T21:23:03.619Z,10.73
2017-11-22T21:25:35.833Z,10.72
2017-11-22T21:28:13.723Z,10.74
2017-11-22T21:30:46.258Z,10.83
2017-11-22T21:33:18.604Z,10.89
2017-11-22T21:35:50.257Z,10.94
2017-11-22T21:38:23.092Z,11.11
2017-11-22T21:40:55.034Z,11.21
2017-11-22T21:43:26.455Z,11.16
2017-11-22T21:45:57.982Z,11.20
2017-11-22T21:49:32.214Z,11.22
2017-11-22T21:52:06.082Z,11.14
2017-11-22T21:54:38.268Z,11.08
2017-11-22T21:57:12.698Z,11.04
2017-11-22T21:59:46.008Z,10.94
2017-11-22T22:02:22.805Z,11.00
2017-11-22T22:04:54.476Z,11.02
2017-11-22T22:07:34.054Z,11.11
2017-11-22T22:10:08.092Z,11.26
2017-11-22T22:12:41.427Z,11.22
2017-11-22T22:15:12.924Z,11.12
2017-11-22T22:17:44.454Z,11.15
2017-11-22T22:20:22.602Z,11.09
2017-11-22T22:22:54.065Z,11.05
2017-11-22T22:25:25.569Z,11.04
2017-11-22T22:27:56.978Z,11.05
2017-11-22T22:30:28.469Z,11.06
2017-11-22T22:32:59.882Z,11.04
2017-11-22T22:35:31.890Z,11.04
2017-11-22T22:38:07.206Z,10.97
2017-11-22T22:40:39.491Z,10.94
2017-11-22T22:43:12.720Z,10.90
2017-11-22T22:45:44.032Z,10.84
2017-11-22T22:48:20.954Z,10.77
2017-11-22T22:50:52.460Z,10.68
2017-11-22T22:53:25.905Z,10.61
2017-11-22T22:55:57.592Z,10.57
2017-11-22T22:58:29.619Z,10.53
2017-11-22T23:01:01.259Z,10.54
2017-11-22T23:03:33.132Z,10.52
2017-11-22T23:06:10.156Z,10.51
2017-11-22T23:08:41.543Z,10.43
2017-11-22T23:11:14.851Z,10.35
2017-11-22T23:13:46.213Z,10.38
2017-11-22T23:16:20.372Z,10.31
2017-11-22T23:18:52.157Z,10.32
2017-11-22T23:21:23.796Z,10.28
2017-11-22T23:23:55.198Z,10.41
2017-11-22T23:26:26.723Z,10.36
2017-11-22T23:28:58.390Z,10.47
2017-11-22T23:31:29.769Z,10.44
2017-11-22T23:34:01.214Z,10.41
2017-11-22T23:36:34.250Z,10.40
2017-11-22T23:39:07.361Z,10.34
2017-11-22T23:41:38.767Z,10.29
2017-11-22T23:44:12.247Z,10.28
2017-11-22T23:46:44.729Z,10.32
2017-11-22T23:49:16.210Z,10.34
2017-11-22T23:51:48.808Z,10.37
2017-11-22T23:54:21.277Z,10.28
2017-11-22T23:56:52.679Z,10.29
2017-11-22T23:59:26.553Z,10.23
